Station: Hawker

  Atmospheric Gas Attenuation - ITU Rec 676-11   --------------- db/100km ---------------
Date Time Temp RH % AH g/m3 Dew Point Wind Direction Speed kph Gust kph Barometer mB Rainfall Since 9am 24GHz 47GHz 76GHz 122GHz 134GHz 241GHz
27 09:00 12.5 59 6.49 4.7 7 1026.4 0 15.1 23.4 32.7 85.3 73.6 251.4
26 09:00 9 75 6.61 4.8 9 1023.4 0.5 15.5 24.4 34.5 90.1 78.4 267.6
25 09:00 7.9 74 6.08 3.6 1011.4 14.4 23.4 32.4 84.6 71.7 244.2
24 09:00 11 58 5.81 3.2 13 1013.1 0 13.8 22.3 30.2 78.8 65.7 223.5
23 09:00 12.5 66 7.26 6.3 17 1013.1 0 16.8 24.1 35.1 91.9 82.5 282.6
22 09:00 13.2 60 6.89 5.7 26 1014.1 0 16.0 23.4 33.4 87.4 77.2 264.0
21 09:00 16.1 30 4.11 -1.4 15 1008.1 0 10.0 18.6 22.5 58.3 42.6 142.8
20 09:00 18.6 67 10.66 12.4 11 1006.7 5 23.7 27.5 45.2 119.0 118.3 408.9
19 09:00 15 90 11.54 13.4 17 1007.1 25 25.8 30.2 51.1 134.8 136.5 471.8
18 09:00 25.4 80 18.83 21.8 24 1014.8 0 40.5 39.6 76.1 201.2 221.2 768.4
17 09:00 21.4 75 14.06 16.9 13 1016.6 0 30.8 32.7 58.1 153.3 161.0 558.3
16 09:00 20.9 66 12.02 14.3 0 1021.1 0 26.5 29.6 50.1 131.8 134.2 464.5
14 09:00 13.5 88 10.29 11.5 11 1027.2 0 23.2 29.4 47.7 125.2 123.3 425.2
13 09:00 17 80 11.58 13.5 17 1024.1 0 25.8 30.3 50.9 133.9 135.3 467.7
12 09:00 22.4 67 13.31 16 19 1019.2 0 29.1 31.1 54.3 143.2 148.8 515.8
11 09:00 20.2 72 12.59 15 28 1021 0 27.7 30.8 52.9 139.3 143.3 496.1
10 09:00 18 66 10.14 11.7 9 1019.9 0.2 22.6 27.4 44.1 115.8 113.6 392.1
09 09:00 16.4 76 10.61 12.1 22 1024.5 0 23.7 28.8 47.1 123.9 122.8 424.1
07 09:00 21.6 61 11.57 13.8 22 1018.6 0 25.5 28.5 47.7 125.5 126.8 438.7
06 09:00 17.3 59 8.69 9.2 2 1020.3 0 19.6 25.3 38.7 101.6 95.8 329.7
05 09:00 15.5 63 8.33 8.5 4 1019.4 0 18.9 25.2 38.2 100.0 93.3 320.7
04 09:00 13 76 8.62 8.9 0 1018.5 0 19.7 26.4 40.5 106.3 100.1 344.4
03 09:00 15.9 55 7.45 7 6 1015 0 17.0 23.6 34.4 90.2 81.5 279.4
02 09:00 20.7 24 4.32 -0.4 22 1008 0 10.3 18.0 22.0 56.9 42.4 142.6
31 09:00 9.9 87 8.13 7.9 20 1025.8 0 18.8 26.8 40.4 105.9 98.0 336.5
30 09:00 14.7 71 8.94 9.6 9 1019.1 0 20.3 26.4 41.0 107.5 102.2 351.9
29 09:00 16.5 78 10.95 12.6 13 1027.1 0 24.4 29.5 48.6 127.9 127.6 440.9
28 09:00 14 72 8.68 9.1 0 1030.3 0 19.7 26.6 40.8 106.8 100.6 346.1
27 09:00 11.5 79 8.16 8.1 0 1026.2 0 18.7 26.3 39.7 104.1 96.5 331.2
26 09:00 13.4 75 8.72 9.1 9 1028.1 0 19.8 26.8 41.2 107.9 101.7 350.0
25 09:00 11.5 76 7.85 7.4 7 1028.1 0 18.1 25.9 38.6 100.9 92.4 317.1
24 09:00 8.6 85 7.31 6.3 0 1022.7 0 17.1 25.6 37.5 98.1 88.1 301.7
23 09:00 6.8 95 7.27 6.1 2 1023.3 0 17.0 26.1 38.2 100.0 89.7 306.9
22 09:00 8.4 91 7.72 7.1 19 1020.3 7 17.9 26.3 39.2 102.7 93.8 321.5
21 09:00 9.9 90 8.41 8.3 17 1012.2 5 19.4 26.7 41.0 107.5 100.8 346.3
20 09:00 10 99 9.3 9.8 13 1011.5 1 21.3 28.2 44.7 117.5 113.1 389.4
19 09:00 10.3 90 8.62 8.7 43 1006.1 0.3 19.8 26.7 41.4 108.7 102.6 352.9
18 09:00 11.1 81 8.16 7.9 6 1004.4 0 18.8 25.6 39.0 102.3 95.2 327.1
17 09:00 12.6 80 8.85 9.3 4 1011.2 0 20.2 26.6 41.3 108.6 103.1 354.9
16 09:00 9.5 93 8.47 8.5 2 1020.6 0.1 19.5 27.3 41.8 109.7 102.9 353.4
14 09:00 12.1 96 10.3 11.5 9 1013.1 0.6 23.3 29.3 47.9 126.0 124.3 428.8
13 09:00 12.1 96 10.3 11.5 0 1010.9 0.1 23.3 29.2 47.8 125.7 124.1 428.0
12 09:00 12.4 95 10.38 11.7 15 1009.7 6 23.5 29.2 47.9 126.0 124.6 430.0
11 09:00 10.4 95 9.16 9.6 4 1012.9 0.6 21.0 27.9 43.9 115.4 110.6 380.9
10 09:00 9.1 85 7.54 6.8 0 1020.6 0 17.5 25.8 38.1 99.8 90.5 310.1
09 09:00 8.7 97 8.39 8.3 15 1015.5 2 19.4 27.2 41.7 109.3 102.4 351.7
08 09:00 6.2 97 7.14 5.8 6 1010.3 0.6 16.8 25.6 37.4 98.0 87.6 299.6
07 09:00 4.5 100 6.58 4.5 15 1008 13 15.7 25.0 35.7 93.6 81.5 278.3
06 09:00 7.4 80 6.36 4.2 13 1014.5 1 15.1 24.1 33.8 88.4 76.1 259.3
05 09:00 9 74 6.53 4.6 28 1019.6 0 15.4 24.1 34.0 88.9 77.1 263.0
04 09:00 9.5 91 8.29 8.1 6 1015.9 0 19.1 26.8 40.8 107.1 99.9 343.3
03 09:00 12 59 6.29 4.4 0 1017.1 0 14.7 22.9 31.8 82.9 71.0 242.2
02 09:00 11 64 6.41 4.5 2 1021.5 0 15.0 23.5 32.8 85.6 73.7 251.5
01 09:00 12.2 63 6.8 5.5 2 1023 0 15.8 23.8 33.9 88.5 77.6 265.3
27 09:00 11.3 89 9.08 9.6 9 1021.5 0 20.7 27.8 43.5 114.1 109.0 375.1
26 09:00 10.3 82 7.85 7.4 0 1021.7 0 18.1 26.0 38.9 101.8 93.4 320.3
25 09:00 8.5 77 6.58 4.7 2 1019 0 15.5 24.3 34.4 89.9 78.2 266.9
24 09:00 9.7 77 7.1 5.9 2 1019.7 0 16.6 24.9 36.0 94.2 83.9 286.9
23 09:00 8 88 7.28 6.1 2 1024.5 0 17.0 25.8 37.7 98.7 88.5 303.0
22 09:00 7.5 91 7.29 6.2 4 1027.6 0 17.1 26.1 38.2 99.8 89.5 306.2
21 09:00 9.3 88 7.91 7.4 22 1028.6 0 18.3 26.7 39.9 104.5 96.0 329.2
20 09:00 8.6 77 6.62 4.9 7 1025.8 0 15.6 24.6 34.8 90.9 79.1 269.9
19 09:00 10 86 8.08 7.8 4 1017.4 0 18.7 26.3 39.8 104.3 96.5 331.4
18 09:00 13.9 58 6.95 5.9 24 1014.8 0 16.1 23.3 33.4 87.3 77.3 264.5
17 09:00 8.5 76 6.49 4.5 0 1020.8 0 15.3 24.3 34.1 89.2 77.1 263.1
16 09:00 7.7 79 6.41 4.3 0 1023.4 0 15.2 24.4 34.3 89.5 77.0 262.6
15 09:00 7.2 90 7.07 5.7 0 1022.8 0 16.6 25.6 37.2 97.2 86.4 295.5
14 09:00 6 97 7.04 5.6 4 1026.6 0 16.6 26.1 37.8 98.8 87.7 299.6
13 09:00 8 95 7.86 7.2 15 1025 0.3 18.3 26.8 40.2 105.3 96.6 331.3
11 09:00 8 93 7.69 6.9 13 1016.5 0 17.9 26.2 39.1 102.5 93.6 320.7
10 09:00 9.2 69 6.16 3.8 0 1019.2 0 14.6 23.5 32.5 84.8 72.1 245.5
09 09:00 7.5 79 6.33 4.1 2 1025.5 0 15.0 24.4 34.1 89.0 76.3 260.0
08 09:00 6.5 85 6.38 4.2 0 1025.2 0 15.1 24.8 34.7 90.7 77.9 265.7
07 09:00 7.8 81 6.61 4.7 2 1028.9 0 15.6 25.0 35.3 92.0 80.0 272.9
06 09:00 8.1 85 7.08 5.7 11 1030.3 0 16.6 25.7 37.1 97.0 86.1 294.5
05 09:00 10.3 89 8.53 8.5 11 1029.4 0 19.6 27.5 42.1 110.2 103.4 355.2
04 09:00 7.3 82 6.48 4.4 7 1030.1 0 15.3 24.9 35.0 91.3 78.8 268.8
03 09:00 10 88 8.27 8.2 0 1025.5 0 19.1 26.9 40.9 107.3 99.8 342.8
02 09:00 9.9 87 8.13 7.9 0 1017.7 0 18.8 26.4 40.0 105.0 97.4 334.3
01 09:00 16 45 6.13 4.2 7 1013.2 0 14.3 21.6 29.5 77.1 65.4 223.2
30 09:00 10.8 55 5.44 2.3 7 1017 0 13.0 21.9 29.1 75.7 61.6 208.9
29 09:00 7.4 71 5.65 2.5 6 1022.2 0 13.5 23.3 31.3 81.6 67.3 228.4
28 09:00 7.9 66 5.42 2 4 1025.9 0 13.0 22.9 30.4 79.0 64.1 217.3
27 09:00 8.7 75 6.49 4.5 2 1025.8 0 15.3 24.4 34.3 89.4 77.3 263.6
26 09:00 9.1 84 7.46 6.6 0 1025 0 17.4 25.8 38.0 99.4 89.8 307.4
25 09:00 7.4 78 6.21 3.8 0 1021.7 0 14.7 24.1 33.5 87.5 74.6 254.0
23 09:00 7.8 91 7.43 6.5 0 1020.7 0.2 17.4 26.0 38.3 100.3 90.5 310.0
22 09:00 9.6 97 8.89 9.2 6 1018.6 0.1 20.4 27.9 43.5 114.1 108.5 373.1
21 09:00 9.4 93 8.41 8.4 7 1014.8 0.6 19.4 27.0 41.3 108.5 101.7 349.3
20 09:00 9.9 82 7.66 7 4 1018.5 0 17.8 25.7 38.1 99.9 91.0 312.1
19 09:00 16.6 46 6.5 5.1 7 1019.8 0 15.0 22.2 30.9 80.6 69.7 238.0
18 09:00 11.6 66 6.86 5.5 4 1027.9 0 16.0 24.3 34.6 90.2 79.3 271.1
17 09:00 10.9 78 7.76 7.2 0 1030.2 0 17.9 26.0 38.6 100.9 92.1 315.8
16 09:00 9.7 73 6.73 5.2 0 1026.4 0 15.8 24.5 34.8 90.9 79.4 271.4
15 09:00 9.8 79 7.33 6.4 0 1024.4 0 17.0 25.4 37.1 97.0 87.2 298.4
14 09:00 7.9 88 7.23 6 0 1020.8 9 16.9 25.6 37.4 97.9 87.7 300.1
13 09:00 16.9 35 5.03 1.4 15 1009.9 0 11.9 19.7 25.4 65.9 52.1 176.6
12 09:00 11.3 70 7.14 6.1 2 1019.4 0 16.6 24.5 35.4 92.7 82.6 282.9
11 09:00 9.6 70 6.41 4.5 0 1023.1 0 15.1 23.9 33.4 87.3 75.2 256.3
10 09:00 8.2 74 6.2 3.9 0 1025.1 0 14.7 24.0 33.3 86.8 73.9 251.7

Last Refresh: 27-Sep-2020 14:56:35

Most of the information presented on this site is sourced from the Bureau of Meteorology.  Copyright in all material sourced from the Bureau of Meteorology resides with the Commonwealth of Australia.